Jo Redwood — LAPN7 — position and weather

sailwx.info

Track history (hours):
 
Tides and Currents Weather Stations Pressure Air Temp Water Temp Dewpoint Dewpoint Depression Visibility Wind Speed Wind Dir Waves Ship Positions

Jo Redwood

Last reported at 2018-Apr-17 12:11 UTC. Time now 2018-Jun-20 04:02 UTC.
Position N 30°03' W 090°36'.
Warning: this ship's position is months out of date.

Length 229 m; draft 10.7 m.

Type: Ship (hazmat cat D). MMSI: 257932000.

Date/timePositionNaut miles runAvg speedWind from/ knotsBaromVisibWave heightAir tempDewpointWater temp
2018-Apr-17 12:11N 30°03' W 090°36'1 1.3
2018-Apr-17 11:09N 30°03' W 090°34'1 6.6
2018-Apr-17 10:59N 30°03' W 090°33'6 4.9
2018-Apr-17 09:50N 29°60' W 090°28'2 7.0
2018-Apr-17 09:30N 29°60' W 090°25'3 5.7
2018-Apr-17 08:58N 29°57' W 090°23'4 6.3
2018-Apr-17 08:24N 29°56' W 090°19'3 6.8
2018-Apr-17 07:59N 29°58' W 090°17'  
2018-Apr-10 08:02N 24°34' W 079°58'011.9
2018-Apr-10 08:00N 24°34' W 079°58'612.1
2018-Apr-10 07:30N 24°37' W 079°52'612.4
2018-Apr-10 07:00N 24°40' W 079°47'712.7
2018-Apr-10 06:29N 24°47' W 079°45'612.8
2018-Apr-10 06:00N 24°52' W 079°43'612.8
2018-Apr-10 05:30N 24°58' W 079°41'612.6
2018-Apr-10 05:00N 25°05' W 079°39'612.5
2018-Apr-10 04:30N 25°11' W 079°39'612.2
2018-Apr-10 04:00N 25°17' W 079°39'612.0
2018-Apr-10 03:30N 25°23' W 079°39'611.6
2018-Apr-10 03:00N 25°29' W 079°39'611.1
2018-Apr-10 02:30N 25°34' W 079°39'510.1
2018-Apr-10 02:00N 25°39' W 079°39'4 8.1
2018-Apr-10 01:30N 25°44' W 079°38'4 8.0
2018-Apr-10 01:00N 25°48' W 079°39'510.3
2018-Apr-10 00:30N 25°51' W 079°43'511.1
2018-Apr-10 00:00N 25°56' W 079°46'611.3
2018-Apr-09 23:30N 25°59' W 079°51'611.8
2018-Apr-09 23:00N 26°02' W 079°57'611.4
2018-Apr-09 22:30N 26°05' W 080°02'4 8.2
2018-Apr-09 22:00N 26°06' W 080°07'1 1.2
2018-Apr-09 21:30N 26°06' W 080°07'0 0.0
2018-Apr-09 21:00N 26°06' W 080°07'0 0.0
2018-Apr-09 20:31N 26°06' W 080°07'0 0.0
2018-Apr-09 20:00N 26°06' W 080°07'0 0.0
2018-Apr-09 19:27N 26°06' W 080°07'0 0.0
2018-Apr-09 19:01N 26°06' W 080°07'0 0.0
2018-Apr-09 18:30N 26°06' W 080°07'0 0.0
2018-Apr-09 18:00N 26°06' W 080°07'0 0.0
2018-Apr-09 17:30N 26°06' W 080°07'0 0.0
2018-Apr-09 17:00N 26°06' W 080°07'0 0.0
2018-Apr-09 16:30N 26°06' W 080°07'0 0.0
2018-Apr-09 15:58N 26°06' W 080°07'0 0.0
2018-Apr-09 15:30N 26°06' W 080°07'0 0.0
2018-Apr-09 15:00N 26°06' W 080°07'0 0.0
2018-Apr-09 14:30N 26°06' W 080°07'0 0.0
2018-Apr-09 14:00N 26°06' W 080°07'0 0.0
2018-Apr-09 13:28N 26°06' W 080°07'0 0.0
2018-Apr-09 13:00N 26°06' W 080°07'0 0.0
2018-Apr-09 12:30N 26°06' W 080°07'0 0.0
2018-Apr-09 12:00N 26°06' W 080°07'0 0.0
2018-Apr-09 11:30N 26°06' W 080°07'0 0.0
2018-Apr-09 11:00N 26°06' W 080°07'0 0.0
2018-Apr-09 10:30N 26°06' W 080°07'0 0.0
2018-Apr-09 10:00N 26°06' W 080°07'0 0.0
2018-Apr-09 09:30N 26°06' W 080°07'0 0.0
2018-Apr-09 09:00N 26°06' W 080°07'0 0.0
2018-Apr-09 08:27N 26°06' W 080°07'0 0.0
2018-Apr-09 08:00N 26°06' W 080°07'0 0.0
2018-Apr-09 07:30N 26°06' W 080°07'0 0.0
2018-Apr-09 07:00N 26°06' W 080°07'0 0.0
2018-Apr-09 06:30N 26°06' W 080°07'0 0.0
2018-Apr-09 06:00N 26°06' W 080°07'0 0.0
2018-Apr-09 05:30N 26°06' W 080°07'0 0.0
2018-Apr-09 05:00N 26°06' W 080°07'0 0.0
2018-Apr-09 04:30N 26°06' W 080°07'0 0.0
2018-Apr-09 04:00N 26°06' W 080°07'0 0.0
2018-Apr-09 03:30N 26°06' W 080°07'0 0.0
2018-Apr-09 03:00N 26°06' W 080°07'0 0.0
2018-Apr-09 02:30N 26°06' W 080°07'0 0.0
2018-Apr-09 02:00N 26°06' W 080°07'0 0.0
2018-Apr-09 01:30N 26°06' W 080°07'0 0.0
2018-Apr-09 01:00N 26°06' W 080°07'0 0.0
2018-Apr-09 00:30N 26°06' W 080°07'0 0.0
2018-Apr-09 00:00N 26°06' W 080°07'0 0.0
2018-Apr-08 23:30N 26°06' W 080°07'0 0.0
2018-Apr-08 23:00N 26°06' W 080°07'0 0.0
2018-Apr-08 22:30N 26°06' W 080°07'0 0.0
2018-Apr-08 22:00N 26°06' W 080°07'0 0.0
2018-Apr-08 21:30N 26°06' W 080°07'0 0.0
2018-Apr-08 21:00N 26°06' W 080°07'0 0.0
2018-Apr-08 20:30N 26°06' W 080°07'0 0.0
2018-Apr-08 20:00N 26°06' W 080°07'0 0.0
2018-Apr-08 19:30N 26°06' W 080°07'0 0.0
2018-Apr-08 19:00N 26°06' W 080°07'0 0.0
2018-Apr-08 18:30N 26°06' W 080°07'0 0.0
2018-Apr-08 18:00N 26°06' W 080°07'0 0.0
2018-Apr-08 17:30N 26°06' W 080°07'0 0.0
2018-Apr-08 17:00N 26°06' W 080°07'0 0.0
2018-Apr-08 16:30N 26°06' W 080°07'0 0.0
2018-Apr-08 16:00N 26°06' W 080°07'0 0.0
2018-Apr-08 15:30N 26°06' W 080°07'0 0.0
2018-Apr-08 15:00N 26°06' W 080°07'0 0.0
2018-Apr-08 14:30N 26°06' W 080°07'0 0.0
2018-Apr-08 14:00N 26°06' W 080°07'0 0.0
2018-Apr-08 13:30N 26°06' W 080°07'0 0.0
2018-Apr-08 13:00N 26°06' W 080°07'0 0.0
2018-Apr-08 12:30N 26°06' W 080°07'0 0.0
2018-Apr-08 12:00N 26°06' W 080°07'0 0.0
2018-Apr-08 11:30N 26°06' W 080°07'1 2.6
2018-Apr-08 11:00N 26°06' W 080°06'3 7.1
2018-Apr-08 10:30N 26°06' W 080°02'2 4.8
2018-Apr-08 10:00N 26°07' W 080°04'0 0.1
2018-Apr-08 09:29N 26°07' W 080°04'0 0.1
2018-Apr-08 08:59N 26°07' W 080°04'0 0.0
2018-Apr-08 08:29N 26°07' W 080°04'0 0.0
2018-Apr-08 07:59N 26°07' W 080°04'0 0.0
2018-Apr-08 07:29N 26°07' W 080°04'0 0.0
2018-Apr-08 06:59N 26°07' W 080°04'0 0.0
2018-Apr-08 06:29N 26°07' W 080°04'0 0.0
2018-Apr-08 05:59N 26°07' W 080°04'0 0.0
2018-Apr-08 05:29N 26°07' W 080°04'0 0.0
2018-Apr-08 04:59N 26°07' W 080°04'0 0.0
2018-Apr-08 04:29N 26°07' W 080°04'0 0.1
2018-Apr-08 03:59N 26°07' W 080°04'0 0.0
2018-Apr-08 03:29N 26°07' W 080°04'0 0.0
2018-Apr-08 02:59N 26°07' W 080°04'0 0.0
2018-Apr-08 02:29N 26°07' W 080°04'0 0.0
2018-Apr-08 01:59N 26°07' W 080°04'0 0.0
2018-Apr-08 01:29N 26°07' W 080°04'0 0.0
2018-Apr-08 00:59N 26°07' W 080°04'0 0.0
2018-Apr-08 00:29N 26°07' W 080°04'0 0.0
2018-Apr-07 23:59N 26°07' W 080°04'0 0.0
2018-Apr-07 23:29N 26°07' W 080°04'0 0.0
2018-Apr-07 22:59N 26°07' W 080°04'0 0.1
2018-Apr-07 22:29N 26°07' W 080°05'0 0.0
2018-Apr-07 21:59N 26°07' W 080°05'0 0.0
2018-Apr-07 21:29N 26°07' W 080°05'0 0.0
2018-Apr-07 20:59N 26°07' W 080°05'0 0.0
2018-Apr-07 20:29N 26°07' W 080°05'0 0.0
2018-Apr-07 19:59N 26°07' W 080°05'0 0.0
2018-Apr-07 19:26N 26°07' W 080°05'0 0.0
2018-Apr-07 18:56N 26°07' W 080°05'0 0.0
2018-Apr-07 18:29N 26°07' W 080°05'0 0.0
2018-Apr-07 17:56N 26°07' W 080°05'0 0.0
2018-Apr-07 17:29N 26°07' W 080°05'0 0.0
2018-Apr-07 16:59N 26°07' W 080°05'0 0.0
2018-Apr-07 16:29N 26°07' W 080°05'0 0.0
2018-Apr-07 15:59N 26°07' W 080°05'0 0.0
2018-Apr-07 15:29N 26°07' W 080°05'0 0.0
2018-Apr-07 14:59N 26°07' W 080°05'0 0.0
2018-Apr-07 14:29N 26°07' W 080°05'0 0.0
2018-Apr-07 13:59N 26°07' W 080°05'0 0.0
2018-Apr-07 13:29N 26°07' W 080°04'0 0.0
2018-Apr-07 12:56N 26°07' W 080°05'0 0.0
2018-Apr-07 12:29N 26°07' W 080°05'  
Track history (hours):
 
Tides and Currents Weather Stations Pressure Air Temp Water Temp Dewpoint Dewpoint Depression Visibility Wind Speed Wind Dir Waves Ship Positions

Jo Redwood

Last reported at 2018-Apr-17 12:11 UTC. Time now 2018-Jun-20 04:02 UTC.
Position N 30°03' W 090°36'.
Warning: this ship's position is months out of date.

Length 229 m; draft 10.7 m.

Type: Ship (hazmat cat D). MMSI: 257932000.

Date/timePositionNaut miles runAvg speedWind from/ knotsBaromVisibWave heightAir tempDewpointWater temp
2018-Apr-17 12:11N 30°03' W 090°36'1 1.3
2018-Apr-17 11:09N 30°03' W 090°34'1 6.6
2018-Apr-17 10:59N 30°03' W 090°33'6 4.9
2018-Apr-17 09:50N 29°60' W 090°28'2 7.0
2018-Apr-17 09:30N 29°60' W 090°25'3 5.7
2018-Apr-17 08:58N 29°57' W 090°23'4 6.3
2018-Apr-17 08:24N 29°56' W 090°19'3 6.8
2018-Apr-17 07:59N 29°58' W 090°17'  
2018-Apr-10 08:02N 24°34' W 079°58'011.9
2018-Apr-10 08:00N 24°34' W 079°58'612.1
2018-Apr-10 07:30N 24°37' W 079°52'612.4
2018-Apr-10 07:00N 24°40' W 079°47'712.7
2018-Apr-10 06:29N 24°47' W 079°45'612.8
2018-Apr-10 06:00N 24°52' W 079°43'612.8
2018-Apr-10 05:30N 24°58' W 079°41'612.6
2018-Apr-10 05:00N 25°05' W 079°39'612.5
2018-Apr-10 04:30N 25°11' W 079°39'612.2
2018-Apr-10 04:00N 25°17' W 079°39'612.0
2018-Apr-10 03:30N 25°23' W 079°39'611.6
2018-Apr-10 03:00N 25°29' W 079°39'611.1
2018-Apr-10 02:30N 25°34' W 079°39'510.1
2018-Apr-10 02:00N 25°39' W 079°39'4 8.1
2018-Apr-10 01:30N 25°44' W 079°38'4 8.0
2018-Apr-10 01:00N 25°48' W 079°39'510.3
2018-Apr-10 00:30N 25°51' W 079°43'511.1
2018-Apr-10 00:00N 25°56' W 079°46'611.3
2018-Apr-09 23:30N 25°59' W 079°51'611.8
2018-Apr-09 23:00N 26°02' W 079°57'611.4
2018-Apr-09 22:30N 26°05' W 080°02'4 8.2
2018-Apr-09 22:00N 26°06' W 080°07'1 1.2
2018-Apr-09 21:30N 26°06' W 080°07'0 0.0
2018-Apr-09 21:00N 26°06' W 080°07'0 0.0
2018-Apr-09 20:31N 26°06' W 080°07'0 0.0
2018-Apr-09 20:00N 26°06' W 080°07'0 0.0
2018-Apr-09 19:27N 26°06' W 080°07'0 0.0
2018-Apr-09 19:01N 26°06' W 080°07'0 0.0
2018-Apr-09 18:30N 26°06' W 080°07'0 0.0
2018-Apr-09 18:00N 26°06' W 080°07'0 0.0
2018-Apr-09 17:30N 26°06' W 080°07'0 0.0
2018-Apr-09 17:00N 26°06' W 080°07'0 0.0
2018-Apr-09 16:30N 26°06' W 080°07'0 0.0
2018-Apr-09 15:58N 26°06' W 080°07'0 0.0
2018-Apr-09 15:30N 26°06' W 080°07'0 0.0
2018-Apr-09 15:00N 26°06' W 080°07'0 0.0
2018-Apr-09 14:30N 26°06' W 080°07'0 0.0
2018-Apr-09 14:00N 26°06' W 080°07'0 0.0
2018-Apr-09 13:28N 26°06' W 080°07'0 0.0
2018-Apr-09 13:00N 26°06' W 080°07'0 0.0
2018-Apr-09 12:30N 26°06' W 080°07'0 0.0
2018-Apr-09 12:00N 26°06' W 080°07'0 0.0
2018-Apr-09 11:30N 26°06' W 080°07'0 0.0
2018-Apr-09 11:00N 26°06' W 080°07'0 0.0
2018-Apr-09 10:30N 26°06' W 080°07'0 0.0
2018-Apr-09 10:00N 26°06' W 080°07'0 0.0
2018-Apr-09 09:30N 26°06' W 080°07'0 0.0
2018-Apr-09 09:00N 26°06' W 080°07'0 0.0
2018-Apr-09 08:27N 26°06' W 080°07'0 0.0
2018-Apr-09 08:00N 26°06' W 080°07'0 0.0
2018-Apr-09 07:30N 26°06' W 080°07'0 0.0
2018-Apr-09 07:00N 26°06' W 080°07'0 0.0
2018-Apr-09 06:30N 26°06' W 080°07'0 0.0
2018-Apr-09 06:00N 26°06' W 080°07'0 0.0
2018-Apr-09 05:30N 26°06' W 080°07'0 0.0
2018-Apr-09 05:00N 26°06' W 080°07'0 0.0
2018-Apr-09 04:30N 26°06' W 080°07'0 0.0
2018-Apr-09 04:00N 26°06' W 080°07'0 0.0
2018-Apr-09 03:30N 26°06' W 080°07'0 0.0
2018-Apr-09 03:00N 26°06' W 080°07'0 0.0
2018-Apr-09 02:30N 26°06' W 080°07'0 0.0
2018-Apr-09 02:00N 26°06' W 080°07'0 0.0
2018-Apr-09 01:30N 26°06' W 080°07'0 0.0
2018-Apr-09 01:00N 26°06' W 080°07'0 0.0
2018-Apr-09 00:30N 26°06' W 080°07'0 0.0
2018-Apr-09 00:00N 26°06' W 080°07'0 0.0
2018-Apr-08 23:30N 26°06' W 080°07'0 0.0
2018-Apr-08 23:00N 26°06' W 080°07'0 0.0
2018-Apr-08 22:30N 26°06' W 080°07'0 0.0
2018-Apr-08 22:00N 26°06' W 080°07'0 0.0
2018-Apr-08 21:30N 26°06' W 080°07'0 0.0
2018-Apr-08 21:00N 26°06' W 080°07'0 0.0
2018-Apr-08 20:30N 26°06' W 080°07'0 0.0
2018-Apr-08 20:00N 26°06' W 080°07'0 0.0
2018-Apr-08 19:30N 26°06' W 080°07'0 0.0
2018-Apr-08 19:00N 26°06' W 080°07'0 0.0
2018-Apr-08 18:30N 26°06' W 080°07'0 0.0
2018-Apr-08 18:00N 26°06' W 080°07'0 0.0
2018-Apr-08 17:30N 26°06' W 080°07'0 0.0
2018-Apr-08 17:00N 26°06' W 080°07'0 0.0
2018-Apr-08 16:30N 26°06' W 080°07'0 0.0
2018-Apr-08 16:00N 26°06' W 080°07'0 0.0
2018-Apr-08 15:30N 26°06' W 080°07'0 0.0
2018-Apr-08 15:00N 26°06' W 080°07'0 0.0
2018-Apr-08 14:30N 26°06' W 080°07'0 0.0
2018-Apr-08 14:00N 26°06' W 080°07'0 0.0
2018-Apr-08 13:30N 26°06' W 080°07'0 0.0
2018-Apr-08 13:00N 26°06' W 080°07'0 0.0
2018-Apr-08 12:30N 26°06' W 080°07'0 0.0
2018-Apr-08 12:00N 26°06' W 080°07'0 0.0
2018-Apr-08 11:30N 26°06' W 080°07'1 2.6
2018-Apr-08 11:00N 26°06' W 080°06'3 7.1
2018-Apr-08 10:30N 26°06' W 080°02'2 4.8
2018-Apr-08 10:00N 26°07' W 080°04'0 0.1
2018-Apr-08 09:29N 26°07' W 080°04'0 0.1
2018-Apr-08 08:59N 26°07' W 080°04'0 0.0
2018-Apr-08 08:29N 26°07' W 080°04'0 0.0
2018-Apr-08 07:59N 26°07' W 080°04'0 0.0
2018-Apr-08 07:29N 26°07' W 080°04'0 0.0
2018-Apr-08 06:59N 26°07' W 080°04'0 0.0
2018-Apr-08 06:29N 26°07' W 080°04'0 0.0
2018-Apr-08 05:59N 26°07' W 080°04'0 0.0
2018-Apr-08 05:29N 26°07' W 080°04'0 0.0
2018-Apr-08 04:59N 26°07' W 080°04'0 0.0
2018-Apr-08 04:29N 26°07' W 080°04'0 0.1
2018-Apr-08 03:59N 26°07' W 080°04'0 0.0
2018-Apr-08 03:29N 26°07' W 080°04'0 0.0
2018-Apr-08 02:59N 26°07' W 080°04'0 0.0
2018-Apr-08 02:29N 26°07' W 080°04'0 0.0
2018-Apr-08 01:59N 26°07' W 080°04'0 0.0
2018-Apr-08 01:29N 26°07' W 080°04'0 0.0
2018-Apr-08 00:59N 26°07' W 080°04'0 0.0
2018-Apr-08 00:29N 26°07' W 080°04'0 0.0
2018-Apr-07 23:59N 26°07' W 080°04'0 0.0
2018-Apr-07 23:29N 26°07' W 080°04'0 0.0
2018-Apr-07 22:59N 26°07' W 080°04'0 0.1
2018-Apr-07 22:29N 26°07' W 080°05'0 0.0
2018-Apr-07 21:59N 26°07' W 080°05'0 0.0
2018-Apr-07 21:29N 26°07' W 080°05'0 0.0
2018-Apr-07 20:59N 26°07' W 080°05'0 0.0
2018-Apr-07 20:29N 26°07' W 080°05'0 0.0
2018-Apr-07 19:59N 26°07' W 080°05'0 0.0
2018-Apr-07 19:26N 26°07' W 080°05'0 0.0
2018-Apr-07 18:56N 26°07' W 080°05'0 0.0
2018-Apr-07 18:29N 26°07' W 080°05'0 0.0
2018-Apr-07 17:56N 26°07' W 080°05'0 0.0
2018-Apr-07 17:29N 26°07' W 080°05'0 0.0
2018-Apr-07 16:59N 26°07' W 080°05'0 0.0
2018-Apr-07 16:29N 26°07' W 080°05'0 0.0
2018-Apr-07 15:59N 26°07' W 080°05'0 0.0
2018-Apr-07 15:29N 26°07' W 080°05'0 0.0
2018-Apr-07 14:59N 26°07' W 080°05'0 0.0
2018-Apr-07 14:29N 26°07' W 080°05'0 0.0
2018-Apr-07 13:59N 26°07' W 080°05'0 0.0
2018-Apr-07 13:29N 26°07' W 080°04'0 0.0
2018-Apr-07 12:56N 26°07' W 080°05'0 0.0
2018-Apr-07 12:29N 26°07' W 080°05'  

Dump ship's entire track history